Time;durP1;ratioP1;P1;durP2;ratioP2;P2;SDS_P1;SDS_P2;PMS_P1;PMS_P2;Temp;Humidity;BMP_temperature;BMP_pressure;BME280_temperature;BME280_humidity;BME280_pressure;Samples;Min_cycle;Max_cycle;Signal;HPM_P1;HPM_P2
2023/03/12 00:02:18;;;;;;;66.10;63.70;;;;;;;-141.22;100.00;65034.22;5012696;28;20463;-46
2023/03/12 00:04:45;;;;;;;68.10;64.97;;;;;;;-141.22;100.00;65034.22;5012229;28;20436;-45
2023/03/12 00:07:13;;;;;;;60.50;58.00;;;;;;;-141.22;100.00;65034.22;5012368;28;20457;-46
2023/03/12 00:09:41;;;;;;;64.57;62.20;;;;;;;-141.22;100.00;65034.22;5013243;28;20437;-43
2023/03/12 00:12:09;;;;;;;70.00;67.47;;;;;;;-141.22;100.00;65034.22;5012218;28;20863;-44
2023/03/12 00:14:37;;;;;;;59.77;57.60;;;;;;;-141.22;100.00;65034.22;5012286;28;20437;-45
2023/03/12 00:17:04;;;;;;;65.80;62.77;;;;;;;-141.22;100.00;65034.22;5011924;28;20473;-45
2023/03/12 00:19:33;;;;;;;61.37;58.97;;;;;;;-141.22;100.00;65034.22;5012321;28;20935;-46
2023/03/12 00:22:01;;;;;;;52.93;51.07;;;;;;;-141.22;100.00;65034.22;5012216;28;20476;-44
2023/03/12 00:24:29;;;;;;;57.10;54.47;;;;;;;-141.22;100.00;65034.22;5012168;28;20519;-45
2023/03/12 00:26:57;;;;;;;58.40;55.97;;;;;;;-141.22;100.00;65034.22;5014328;28;20464;-43
2023/03/12 00:29:24;;;;;;;65.67;63.43;;;;;;;-141.22;100.00;65034.22;5016563;28;20430;-44
2023/03/12 00:31:53;;;;;;;57.23;55.10;;;;;;;-141.22;100.00;65034.22;5016170;28;20440;-43
2023/03/12 00:34:20;;;;;;;56.23;54.07;;;;;;;-141.22;100.00;65034.22;5016542;28;20450;-44
2023/03/12 00:36:49;;;;;;;53.53;51.10;;;;;;;-141.22;100.00;65034.22;5016425;28;20483;-44
2023/03/12 00:39:17;;;;;;;48.37;46.57;;;;;;;-141.22;100.00;65034.22;5015839;28;20448;-45
2023/03/12 00:41:45;;;;;;;53.93;52.13;;;;;;;-141.22;100.00;65034.22;5015336;28;20495;-43
2023/03/12 00:44:12;;;;;;;54.93;53.07;;;;;;;-141.22;100.00;65034.22;5015491;28;21580;-43
2023/03/12 00:46:40;;;;;;;51.80;49.50;;;;;;;-141.22;100.00;65034.22;5015057;28;20547;-45
2023/03/12 00:49:08;;;;;;;50.53;48.30;;;;;;;-141.22;100.00;65034.22;5015630;28;20461;-44
2023/03/12 00:51:36;;;;;;;53.90;51.80;;;;;;;-141.22;100.00;65034.22;5015538;28;20437;-43
2023/03/12 00:54:05;;;;;;;55.37;53.30;;;;;;;-141.22;100.00;65034.22;5015186;28;20468;-44
2023/03/12 00:56:32;;;;;;;48.77;46.67;;;;;;;-141.22;100.00;65034.22;5015020;28;20475;-47
2023/03/12 00:59:00;;;;;;;51.97;49.70;;;;;;;-141.22;100.00;65034.22;5015215;28;20767;-44
2023/03/12 01:01:28;;;;;;;48.07;45.77;;;;;;;-141.22;100.00;65034.22;5015023;28;20479;-48
2023/03/12 01:03:57;;;;;;;46.87;44.80;;;;;;;-141.22;100.00;65034.22;5015000;28;20970;-45
2023/03/12 01:06:25;;;;;;;45.27;43.43;;;;;;;-141.22;100.00;65034.22;5016255;28;20545;-47
2023/03/12 01:08:54;;;;;;;42.20;40.70;;;;;;;-141.22;100.00;65034.22;5016126;28;20433;-43
2023/03/12 01:11:23;;;;;;;43.80;41.70;;;;;;;-141.22;100.00;65034.22;5015210;28;20433;-47
2023/03/12 01:13:50;;;;;;;43.40;41.80;;;;;;;-141.22;100.00;65034.22;5014755;28;20449;-43
2023/03/12 01:16:18;;;;;;;44.67;42.97;;;;;;;-141.22;100.00;65034.22;5015472;28;20460;-43
2023/03/12 01:18:46;;;;;;;43.87;42.00;;;;;;;-141.22;100.00;65034.22;5015585;28;20960;-45
2023/03/12 01:21:14;;;;;;;43.03;41.27;;;;;;;-141.22;100.00;65034.22;5014820;28;20476;-46
2023/03/12 01:23:41;;;;;;;42.53;40.50;;;;;;;-141.22;100.00;65034.22;5014455;28;20449;-49
2023/03/12 01:26:09;;;;;;;42.63;40.80;;;;;;;-141.22;100.00;65034.22;5014164;28;20469;-43
2023/03/12 01:28:38;;;;;;;43.33;41.33;;;;;;;-141.22;100.00;65034.22;5014442;28;20429;-44
2023/03/12 01:31:07;;;;;;;42.57;40.93;;;;;;;-141.22;100.00;65034.22;5014634;28;20827;-43
2023/03/12 01:33:35;;;;;;;43.53;41.77;;;;;;;-141.22;100.00;65034.22;5014373;28;20463;-44
2023/03/12 01:36:03;;;;;;;45.87;43.63;;;;;;;-141.22;100.00;65034.22;5014044;28;20476;-43
2023/03/12 01:38:31;;;;;;;43.90;41.90;;;;;;;-141.22;100.00;65034.22;5014450;28;20524;-45
2023/03/12 01:40:58;;;;;;;43.40;41.17;;;;;;;-141.22;100.00;65034.22;5014630;28;20477;-43
2023/03/12 01:43:30;;;;;;;43.97;42.27;;;;;;;-141.22;100.00;65034.22;5013756;28;20902;-43
2023/03/12 01:46:29;;;;;;;42.23;40.07;;;;;;;-141.22;100.00;65034.22;5013029;28;20460;-44
2023/03/12 01:49:01;;;;;;;41.83;39.90;;;;;;;-141.22;100.00;65034.22;5014136;28;20931;-43
2023/03/12 01:51:33;;;;;;;38.10;36.70;;;;;;;-141.22;100.00;65034.22;5014057;28;20441;-43
2023/03/12 01:54:05;;;;;;;38.57;36.77;;;;;;;-141.22;100.00;65034.22;5013540;28;20461;-43
2023/03/12 01:56:35;;;;;;;38.47;36.47;;;;;;;-141.22;100.00;65034.22;5013512;28;20468;-44
2023/03/12 01:59:09;;;;;;;37.57;35.97;;;;;;;-141.22;100.00;65034.22;5014189;28;20425;-46
2023/03/12 02:01:40;;;;;;;37.60;35.93;;;;;;;-141.22;100.00;65034.22;5013977;28;21223;-43
2023/03/12 02:04:08;;;;;;;38.00;36.20;;;;;;;-141.22;100.00;65034.22;5013341;28;20523;-45
2023/03/12 02:06:43;;;;;;;39.43;37.83;;;;;;;-141.22;100.00;65034.22;5013253;28;20548;-43
2023/03/12 02:09:12;;;;;;;37.90;36.03;;;;;;;-141.22;100.00;65034.22;5013846;28;20435;-44
2023/03/12 02:11:40;;;;;;;36.40;34.90;;;;;;;-141.22;100.00;65034.22;5013857;28;20436;-48
2023/03/12 02:14:08;;;;;;;41.17;39.10;;;;;;;-141.22;100.00;65034.22;5013390;28;20460;-45
2023/03/12 02:16:35;;;;;;;38.03;36.33;;;;;;;-141.22;100.00;65034.22;5013139;28;20467;-43
2023/03/12 02:19:11;;;;;;;36.30;34.70;;;;;;;-141.22;100.00;65034.22;5013507;28;20464;-43
2023/03/12 02:21:39;;;;;;;34.13;32.60;;;;;;;-141.22;100.00;65034.22;5013258;28;20495;-43
2023/03/12 02:24:15;;;;;;;34.13;32.63;;;;;;;-141.22;100.00;65034.22;5013844;28;20452;-43
2023/03/12 02:26:44;;;;;;;33.70;32.40;;;;;;;-141.22;100.00;65034.22;5013563;28;20475;-46
2023/03/12 02:29:12;;;;;;;36.77;34.73;;;;;;;-141.22;100.00;65034.22;5014371;28;20433;-43
2023/03/12 02:31:44;;;;;;;38.97;37.17;;;;;;;-141.22;100.00;65034.22;5013898;28;20531;-43
2023/03/12 02:34:11;;;;;;;37.83;36.33;;;;;;;-141.22;100.00;65034.22;5013558;28;20449;-43
2023/03/12 02:36:39;;;;;;;37.03;35.13;;;;;;;-141.22;100.00;65034.22;5012725;28;20468;-43
2023/03/12 02:39:07;;;;;;;35.53;33.30;;;;;;;-141.22;100.00;65034.22;5014045;28;20814;-43
2023/03/12 02:41:39;;;;;;;37.10;35.40;;;;;;;-141.22;100.00;65034.22;5012857;28;21002;-45
2023/03/12 02:44:11;;;;;;;36.00;34.40;;;;;;;-141.22;100.00;65034.22;5014220;28;20460;-43
2023/03/12 02:46:41;;;;;;;35.03;33.40;;;;;;;-141.22;100.00;65034.22;5014252;28;20461;-44
2023/03/12 02:49:11;;;;;;;36.97;35.23;;;;;;;-141.22;100.00;65034.22;5012658;28;20440;-44
2023/03/12 02:51:39;;;;;;;35.93;34.43;;;;;;;-141.22;100.00;65034.22;5013097;28;20472;-43
2023/03/12 02:54:07;;;;;;;36.50;34.80;;;;;;;-141.22;100.00;65034.22;5013283;28;20473;-45
2023/03/12 02:56:35;;;;;;;36.23;34.33;;;;;;;-141.22;100.00;65034.22;5012788;28;20453;-46
2023/03/12 02:59:03;;;;;;;35.80;34.23;;;;;;;-141.22;100.00;65034.22;5013786;28;20429;-48
2023/03/12 03:01:32;;;;;;;33.40;32.20;;;;;;;-141.22;100.00;65034.22;5013492;28;20473;-45
2023/03/12 03:04:01;;;;;;;33.50;31.80;;;;;;;-141.22;100.00;65034.22;5013775;28;20449;-44
2023/03/12 03:06:29;;;;;;;34.53;32.60;;;;;;;-141.22;100.00;65034.22;5013155;28;20468;-43
2023/03/12 03:08:58;;;;;;;34.07;32.53;;;;;;;-141.22;100.00;65034.22;5013601;28;20437;-43
2023/03/12 03:11:26;;;;;;;34.00;32.70;;;;;;;-141.22;100.00;65034.22;5013126;28;20440;-46
2023/03/12 03:13:54;;;;;;;33.40;32.00;;;;;;;-141.22;100.00;65034.22;5013438;28;20449;-43
2023/03/12 03:16:23;;;;;;;33.27;31.87;;;;;;;-141.22;100.00;65034.22;5013008;28;20483;-43
2023/03/12 03:18:52;;;;;;;34.00;32.30;;;;;;;-141.22;100.00;65034.22;5013715;28;20429;-47
2023/03/12 03:21:21;;;;;;;31.30;30.10;;;;;;;-141.22;100.00;65034.22;5012800;28;20437;-44
2023/03/12 03:23:50;;;;;;;31.00;29.70;;;;;;;-141.22;100.00;65034.22;5013240;28;20456;-45
2023/03/12 03:26:20;;;;;;;31.70;30.20;;;;;;;-141.22;100.00;65034.22;5013361;28;20453;-45
2023/03/12 03:28:48;;;;;;;31.90;30.30;;;;;;;-141.22;100.00;65034.22;5014191;28;20941;-44
2023/03/12 03:31:16;;;;;;;30.97;29.70;;;;;;;-141.22;100.00;65034.22;5014117;28;20467;-45
2023/03/12 03:33:44;;;;;;;30.90;29.70;;;;;;;-141.22;100.00;65034.22;5014092;28;20452;-46
2023/03/12 03:36:14;;;;;;;31.30;30.10;;;;;;;-141.22;100.00;65034.22;5013667;28;20465;-51
2023/03/12 03:38:47;;;;;;;29.57;28.30;;;;;;;-141.22;100.00;65034.22;5015341;28;20435;-44
2023/03/12 03:41:16;;;;;;;30.13;28.93;;;;;;;-141.22;100.00;65034.22;5015194;28;20441;-46
2023/03/12 03:43:44;;;;;;;29.70;28.50;;;;;;;-141.22;100.00;65034.22;5015717;28;20532;-44
2023/03/12 03:46:13;;;;;;;30.47;29.33;;;;;;;-141.22;100.00;65034.22;5015754;28;20457;-46
2023/03/12 03:48:41;;;;;;;32.27;29.17;;;;;;;-141.22;100.00;65034.22;5015950;28;20444;-49
2023/03/12 03:51:10;;;;;;;30.87;29.33;;;;;;;-141.22;100.00;65034.22;5015646;28;20461;-43
2023/03/12 03:53:40;;;;;;;31.77;30.47;;;;;;;-141.22;100.00;65034.22;5015682;28;20461;-48
2023/03/12 03:56:09;;;;;;;31.63;30.33;;;;;;;-141.22;100.00;65034.22;5015617;28;20468;-47
2023/03/12 03:58:37;;;;;;;31.37;29.93;;;;;;;-141.22;100.00;65034.22;5015806;28;20468;-48
2023/03/12 04:01:05;;;;;;;32.17;30.80;;;;;;;-141.22;100.00;65034.22;5017437;28;20805;-47
2023/03/12 04:03:34;;;;;;;31.67;29.80;;;;;;;-141.22;100.00;65034.22;5018799;28;20484;-46
2023/03/12 04:06:04;;;;;;;31.33;29.47;;;;;;;-141.22;100.00;65034.22;5018743;28;20469;-45
2023/03/12 04:08:34;;;;;;;31.67;30.27;;;;;;;-141.22;100.00;65034.22;5019336;28;20443;-47
2023/03/12 04:11:08;;;;;;;31.30;29.63;;;;;;;-141.22;100.00;65034.22;5018753;28;20431;-45
2023/03/12 04:13:36;;;;;;;31.23;29.83;;;;;;;-141.22;100.00;65034.22;5018800;28;20447;-44
2023/03/12 04:16:04;;;;;;;31.10;29.67;;;;;;;-141.22;100.00;65034.22;5017674;28;20503;-46
2023/03/12 04:18:32;;;;;;;28.83;27.73;;;;;;;-141.22;100.00;65034.22;5019229;28;20437;-47
2023/03/12 04:21:00;;;;;;;30.10;28.70;;;;;;;-141.22;100.00;65034.22;5018858;28;20424;-44
2023/03/12 04:23:28;;;;;;;29.50;28.40;;;;;;;-141.22;100.00;65034.22;5018878;28;20481;-43
2023/03/12 04:25:56;;;;;;;29.80;28.13;;;;;;;-141.22;100.00;65034.22;5018761;28;20457;-45
2023/03/12 04:28:25;;;;;;;29.53;28.33;;;;;;;-141.22;100.00;65034.22;5017817;28;20437;-48
2023/03/12 04:30:58;;;;;;;29.37;28.03;;;;;;;-141.22;100.00;65034.22;5018924;28;20453;-45
2023/03/12 04:33:26;;;;;;;30.40;29.20;;;;;;;-141.22;100.00;65034.22;5019152;28;20453;-43
2023/03/12 04:35:54;;;;;;;27.70;26.70;;;;;;;-141.22;100.00;65034.22;5019005;28;20471;-46
2023/03/12 04:38:23;;;;;;;29.67;28.43;;;;;;;-141.22;100.00;65034.22;5018921;28;20441;-46
2023/03/12 04:40:58;;;;;;;28.80;27.30;;;;;;;-141.22;100.00;65034.22;5018700;28;20441;-45
2023/03/12 04:43:27;;;;;;;28.77;27.57;;;;;;;-141.22;100.00;65034.22;5018559;28;20487;-45
2023/03/12 04:45:55;;;;;;;28.70;27.33;;;;;;;-141.22;100.00;65034.22;5018396;28;20461;-47
2023/03/12 04:48:24;;;;;;;29.97;28.27;;;;;;;-141.22;100.00;65034.22;5018540;28;20433;-44
2023/03/12 04:50:52;;;;;;;29.00;27.90;;;;;;;-141.22;100.00;65034.22;5018424;28;20433;-45
2023/03/12 04:53:20;;;;;;;29.70;28.50;;;;;;;-141.22;100.00;65034.22;5017475;28;20544;-45
2023/03/12 04:55:48;;;;;;;30.83;29.37;;;;;;;-141.22;100.00;65034.22;5017714;28;20468;-46
2023/03/12 04:58:16;;;;;;;30.70;29.17;;;;;;;-141.22;100.00;65034.22;5016340;28;20429;-47
2023/03/12 05:00:46;;;;;;;31.07;29.60;;;;;;;-141.22;100.00;65034.22;5015807;28;20433;-44
2023/03/12 05:03:14;;;;;;;30.67;29.27;;;;;;;-141.22;100.00;65034.22;5015565;28;20477;-44
2023/03/12 05:05:42;;;;;;;30.83;29.33;;;;;;;-141.22;100.00;65034.22;5015069;28;20471;-46
2023/03/12 05:08:09;;;;;;;31.03;29.47;;;;;;;-141.22;100.00;65034.22;5016182;28;20451;-47
2023/03/12 05:10:37;;;;;;;30.20;29.00;;;;;;;-141.22;100.00;65034.22;5017995;28;20502;-47
2023/03/12 05:13:04;;;;;;;32.87;31.20;;;;;;;-141.22;100.00;65034.22;5016993;28;20449;-44
2023/03/12 05:15:32;;;;;;;30.10;28.50;;;;;;;-141.22;100.00;65034.22;5017115;28;20460;-47
2023/03/12 05:18:01;;;;;;;31.20;30.00;;;;;;;-141.22;100.00;65034.22;5017533;28;20435;-46
2023/03/12 05:20:29;;;;;;;31.43;29.60;;;;;;;-141.22;100.00;65034.22;5017352;28;20504;-49
2023/03/12 05:22:57;;;;;;;30.30;29.10;;;;;;;-141.22;100.00;65034.22;5015743;28;20473;-44
2023/03/12 05:25:25;;;;;;;30.70;29.30;;;;;;;-141.22;100.00;65034.22;5013633;28;20460;-46
2023/03/12 05:27:53;;;;;;;30.00;28.80;;;;;;;-141.22;100.00;65034.22;5012602;28;20476;-47
2023/03/12 05:30:21;;;;;;;29.60;28.07;;;;;;;-141.22;100.00;65034.22;5012814;28;20479;-47
2023/03/12 05:32:49;;;;;;;30.23;29.10;;;;;;;-141.22;100.00;65034.22;5012406;28;20827;-45
2023/03/12 05:35:18;;;;;;;30.10;28.60;;;;;;;-141.22;100.00;65034.22;5012676;28;20437;-46
2023/03/12 05:37:46;;;;;;;34.00;32.17;;;;;;;-141.22;100.00;65034.22;5013007;28;20435;-46
2023/03/12 05:40:14;;;;;;;36.87;34.67;;;;;;;-141.22;100.00;65034.22;5012606;28;20429;-47
2023/03/12 05:42:42;;;;;;;46.13;43.17;;;;;;;-141.22;100.00;65034.22;5012711;28;20479;-44
2023/03/12 05:45:10;;;;;;;46.90;43.30;;;;;;;-141.22;100.00;65034.22;5012239;28;20830;-44
2023/03/12 05:47:38;;;;;;;47.40;44.20;;;;;;;-141.22;100.00;65034.22;5012322;28;20552;-44
2023/03/12 05:50:08;;;;;;;42.27;39.37;;;;;;;-141.22;100.00;65034.22;5012355;28;20432;-46
2023/03/12 05:52:37;;;;;;;31.50;30.00;;;;;;;-141.22;100.00;65034.22;5012480;28;20461;-45
2023/03/12 05:55:06;;;;;;;30.43;28.80;;;;;;;-141.22;100.00;65034.22;5012105;28;20452;-48
2023/03/12 05:57:33;;;;;;;29.90;28.70;;;;;;;-141.22;100.00;65034.22;5012628;28;20456;-44
2023/03/12 06:00:01;;;;;;;29.90;28.40;;;;;;;-141.22;100.00;65034.22;5012362;28;20817;-44
2023/03/12 06:02:29;;;;;;;30.83;29.33;;;;;;;-141.22;100.00;65034.22;5012523;28;20452;-44
2023/03/12 06:04:57;;;;;;;31.07;29.70;;;;;;;-141.22;100.00;65034.22;5012412;28;20468;-44
2023/03/12 06:07:25;;;;;;;31.60;29.87;;;;;;;-141.22;100.00;65034.22;5012557;28;20802;-44
2023/03/12 06:09:55;;;;;;;31.70;30.00;;;;;;;-141.22;100.00;65034.22;5012311;28;20433;-44
2023/03/12 06:12:23;;;;;;;29.90;28.50;;;;;;;-141.22;100.00;65034.22;5012259;28;20465;-46
2023/03/12 06:14:50;;;;;;;31.63;30.33;;;;;;;-141.22;100.00;65034.22;5012030;28;20429;-44
2023/03/12 06:17:18;;;;;;;30.50;29.37;;;;;;;-141.22;100.00;65034.22;5011846;28;20468;-44
2023/03/12 06:19:46;;;;;;;30.63;29.23;;;;;;;-141.22;100.00;65034.22;5011405;28;20999;-43
2023/03/12 06:22:14;;;;;;;32.03;30.30;;;;;;;-141.22;100.00;65034.22;5011936;28;20804;-47
2023/03/12 06:24:46;;;;;;;31.97;30.37;;;;;;;-141.22;100.00;65034.22;5011122;28;20898;-45
2023/03/12 06:27:15;;;;;;;34.07;31.87;;;;;;;-141.22;100.00;65034.22;5011398;28;20469;-45
2023/03/12 06:29:45;;;;;;;35.70;33.40;;;;;;;-141.22;100.00;65034.22;5009841;28;20433;-49
2023/03/12 06:32:13;;;;;;;34.00;32.10;;;;;;;-141.22;100.00;65034.22;5011500;28;20547;-48
2023/03/12 06:34:41;;;;;;;36.87;34.87;;;;;;;-141.22;100.00;65034.22;5010479;28;20440;-45
2023/03/12 06:37:09;;;;;;;35.07;33.40;;;;;;;-141.22;100.00;65034.22;4985717;28;21018;-46
2023/03/12 06:39:37;;;;;;;35.40;33.23;;;;;;;-141.22;100.00;65034.22;4971409;28;20469;-46
2023/03/12 06:42:05;;;;;;;34.47;32.70;;;;;;;-141.22;100.00;65034.22;5008492;28;20848;-44
2023/03/12 06:44:34;;;;;;;36.10;34.30;;;;;;;-141.22;100.00;65034.22;5011708;28;20468;-44
2023/03/12 06:47:02;;;;;;;37.00;34.90;;;;;;;-141.22;100.00;65034.22;5011567;28;20433;-45
2023/03/12 06:49:32;;;;;;;36.67;34.93;;;;;;;-141.22;100.00;65034.22;5010652;28;20575;-45
2023/03/12 06:51:59;;;;;;;38.13;36.23;;;;;;;-141.22;100.00;65034.22;5011023;28;20430;-49
2023/03/12 06:54:27;;;;;;;37.03;35.33;;;;;;;-141.22;100.00;65034.22;5011790;28;20786;-45
2023/03/12 06:56:55;;;;;;;38.93;36.60;;;;;;;-141.22;100.00;65034.22;5011114;28;20434;-46
2023/03/12 06:59:22;;;;;;;38.40;36.70;;;;;;;-141.22;100.00;65034.22;5011258;28;20463;-47
2023/03/12 07:01:51;;;;;;;39.63;37.53;;;;;;;-141.22;100.00;65034.22;5010947;28;20441;-47
2023/03/12 07:04:19;;;;;;;41.73;39.70;;;;;;;-141.22;100.00;65034.22;5010851;28;20524;-46
2023/03/12 07:06:49;;;;;;;44.20;41.97;;;;;;;-141.22;100.00;65034.22;5010217;28;20437;-49
2023/03/12 07:09:17;;;;;;;41.17;39.00;;;;;;;-141.22;100.00;65034.22;5009620;28;20560;-47
2023/03/12 07:11:45;;;;;;;40.93;38.97;;;;;;;-141.22;100.00;65034.22;5011393;28;20748;-44
2023/03/12 07:14:12;;;;;;;44.27;41.67;;;;;;;-141.22;100.00;65034.22;5011070;28;20445;-48
2023/03/12 07:16:40;;;;;;;43.10;40.90;;;;;;;-141.22;100.00;65034.22;5010480;28;20839;-46
2023/03/12 07:19:09;;;;;;;43.50;41.00;;;;;;;-141.22;100.00;65034.22;5003718;28;20488;-46
2023/03/12 07:21:37;;;;;;;45.73;43.40;;;;;;;-141.22;100.00;65034.22;5008277;28;20445;-45
2023/03/12 07:24:07;;;;;;;43.07;41.17;;;;;;;-141.22;100.00;65034.22;5011422;28;20483;-44
2023/03/12 07:26:35;;;;;;;45.10;42.97;;;;;;;-141.22;100.00;65034.22;5011065;28;20444;-44
2023/03/12 07:29:03;;;;;;;47.50;44.50;;;;;;;-141.22;100.00;65034.22;5010890;28;20528;-45
2023/03/12 07:31:31;;;;;;;46.63;43.90;;;;;;;-141.22;100.00;65034.22;5010731;28;20435;-46
2023/03/12 07:34:01;;;;;;;47.40;44.90;;;;;;;-141.22;100.00;65034.22;5010508;28;20468;-45
2023/03/12 07:36:30;;;;;;;48.57;46.13;;;;;;;-141.22;100.00;65034.22;5014518;28;20441;-45
2023/03/12 07:38:58;;;;;;;49.00;46.50;;;;;;;-141.22;100.00;65034.22;5011870;28;20468;-44
2023/03/12 07:41:26;;;;;;;53.37;50.53;;;;;;;-141.22;100.00;65034.22;5014763;28;20464;-46
2023/03/12 07:43:54;;;;;;;53.90;51.00;;;;;;;-141.22;100.00;65034.22;5014880;28;20457;-47
2023/03/12 07:46:22;;;;;;;50.47;47.87;;;;;;;-141.22;100.00;65034.22;5014723;28;20437;-46
2023/03/12 07:48:50;;;;;;;54.27;51.23;;;;;;;-141.22;100.00;65034.22;5014977;28;20980;-45
2023/03/12 07:51:17;;;;;;;54.73;51.90;;;;;;;-141.22;100.00;65034.22;5010522;28;20468;-46
2023/03/12 07:53:47;;;;;;;53.00;50.13;;;;;;;-141.22;100.00;65034.22;5014619;28;20551;-44
2023/03/12 07:56:15;;;;;;;53.90;51.07;;;;;;;-141.22;100.00;65034.22;5014573;28;20437;-44
2023/03/12 07:58:43;;;;;;;54.77;51.97;;;;;;;-141.22;100.00;65034.22;5014280;28;20846;-45
2023/03/12 08:01:10;;;;;;;55.07;52.27;;;;;;;-141.22;100.00;65034.22;5013381;28;20576;-45
2023/03/12 08:03:38;;;;;;;55.83;52.83;;;;;;;-141.22;100.00;65034.22;5014157;28;20571;-50
2023/03/12 08:06:06;;;;;;;55.27;52.47;;;;;;;-141.22;100.00;65034.22;5014280;28;20468;-45
2023/03/12 08:08:36;;;;;;;57.60;54.60;;;;;;;-141.22;100.00;65034.22;5011252;28;20494;-45
2023/03/12 08:11:06;;;;;;;53.70;50.90;;;;;;;-141.22;100.00;65034.22;5013136;28;20464;-47
2023/03/12 08:13:33;;;;;;;59.30;56.13;;;;;;;-141.22;100.00;65034.22;5010577;28;20453;-45
2023/03/12 08:16:01;;;;;;;56.30;53.50;;;;;;;-141.22;100.00;65034.22;5013467;28;20524;-44
2023/03/12 08:18:29;;;;;;;56.13;53.13;;;;;;;-141.22;100.00;65034.22;5013864;28;20467;-43
2023/03/12 08:20:56;;;;;;;57.20;53.87;;;;;;;-141.22;100.00;65034.22;5014113;28;20810;-48
2023/03/12 08:23:25;;;;;;;56.97;53.77;;;;;;;-141.22;100.00;65034.22;5013822;28;20540;-50
2023/03/12 08:25:54;;;;;;;56.77;53.67;;;;;;;-141.22;100.00;65034.22;5013915;28;20986;-47
2023/03/12 08:28:23;;;;;;;61.40;57.93;;;;;;;-141.22;100.00;65034.22;5013852;28;20510;-46
2023/03/12 08:30:53;;;;;;;56.83;53.43;;;;;;;-141.22;100.00;65034.22;5013713;28;20464;-49
2023/03/12 08:33:21;;;;;;;56.63;53.67;;;;;;;-141.22;100.00;65034.22;5013985;28;21010;-47
2023/03/12 08:35:49;;;;;;;56.20;53.20;;;;;;;-141.22;100.00;65034.22;5012081;28;20461;-45
2023/03/12 08:38:17;;;;;;;54.67;51.57;;;;;;;-141.22;100.00;65034.22;5013417;28;20449;-48
2023/03/12 08:40:45;;;;;;;52.10;49.30;;;;;;;-141.22;100.00;65034.22;5012744;28;20461;-48
2023/03/12 08:43:12;;;;;;;52.13;49.53;;;;;;;-141.22;100.00;65034.22;5010533;28;20468;-47
2023/03/12 08:45:41;;;;;;;52.80;49.97;;;;;;;-141.22;100.00;65034.22;5010500;28;20817;-48
2023/03/12 08:48:09;;;;;;;51.03;48.00;;;;;;;-141.22;100.00;65034.22;5011082;28;20474;-48
2023/03/12 08:50:37;;;;;;;50.03;47.10;;;;;;;-141.22;100.00;65034.22;5011917;28;20461;-46
2023/03/12 08:53:04;;;;;;;48.77;45.67;;;;;;;-141.22;100.00;65034.22;5011801;28;20461;-47
2023/03/12 08:55:32;;;;;;;49.33;46.60;;;;;;;-141.22;100.00;65034.22;5012546;28;20425;-46
2023/03/12 08:58:00;;;;;;;48.00;45.20;;;;;;;-141.22;100.00;65034.22;5013545;28;20433;-45
2023/03/12 09:00:28;;;;;;;48.27;45.37;;;;;;;-141.22;100.00;65034.22;5012781;28;20461;-50
2023/03/12 09:02:57;;;;;;;47.90;44.80;;;;;;;-141.22;100.00;65034.22;5013103;28;20449;-47
2023/03/12 09:05:26;;;;;;;49.50;46.50;;;;;;;-141.22;100.00;65034.22;5012473;28;20552;-46
2023/03/12 09:07:54;;;;;;;49.83;46.70;;;;;;;-141.22;100.00;65034.22;5013266;28;20425;-46
2023/03/12 09:10:22;;;;;;;49.07;46.27;;;;;;;-141.22;100.00;65034.22;5012511;28;20467;-45
2023/03/12 09:12:49;;;;;;;50.10;47.40;;;;;;;-141.22;100.00;65034.22;5012926;28;20449;-45
2023/03/12 09:15:17;;;;;;;50.73;47.93;;;;;;;-141.22;100.00;65034.22;5012970;28;20433;-47
2023/03/12 09:17:46;;;;;;;52.63;49.60;;;;;;;-141.22;100.00;65034.22;5012159;28;20512;-47
2023/03/12 09:20:16;;;;;;;50.20;47.03;;;;;;;-141.22;100.00;65034.22;5011703;28;20461;-48
2023/03/12 09:22:44;;;;;;;51.03;47.93;;;;;;;-141.22;100.00;65034.22;5012681;28;20803;-48
2023/03/12 09:25:12;;;;;;;53.60;50.27;;;;;;;-141.22;100.00;65034.22;5012283;28;20481;-48
2023/03/12 09:27:42;;;;;;;51.50;48.10;;;;;;;-141.22;100.00;65034.22;5012364;28;20433;-45
2023/03/12 09:30:12;;;;;;;60.10;55.80;;;;;;;-141.22;100.00;65034.22;5011476;28;20472;-47
2023/03/12 09:32:40;;;;;;;61.20;56.83;;;;;;;-141.22;100.00;65034.22;5012015;28;20824;-49
2023/03/12 09:35:09;;;;;;;55.70;52.17;;;;;;;-141.22;100.00;65034.22;5012374;28;20421;-48
2023/03/12 09:37:38;;;;;;;51.57;48.77;;;;;;;-141.22;100.00;65034.22;5011626;28;20422;-51
2023/03/12 09:40:08;;;;;;;54.70;51.43;;;;;;;-141.22;100.00;65034.22;5009049;28;20461;-49
2023/03/12 09:42:41;;;;;;;51.63;48.27;;;;;;;-141.22;100.00;65034.22;5011398;28;20446;-47
2023/03/12 09:45:16;;;;;;;52.23;49.33;;;;;;;-141.22;100.00;65034.22;5012254;28;20978;-52
2023/03/12 09:47:49;;;;;;;52.17;49.33;;;;;;;-141.22;100.00;65034.22;5012036;28;20440;-49
2023/03/12 09:50:25;;;;;;;51.03;47.70;;;;;;;-141.22;100.00;65034.22;5011372;28;20464;-48
2023/03/12 09:52:59;;;;;;;49.77;46.27;;;;;;;-141.22;100.00;65034.22;5010466;28;20478;-49
2023/03/12 09:55:31;;;;;;;48.30;45.50;;;;;;;-141.22;100.00;65034.22;5011491;28;21151;-45
2023/03/12 09:57:59;;;;;;;49.20;46.40;;;;;;;-141.22;100.00;65034.22;5011731;28;20425;-45
2023/03/12 10:00:31;;;;;;;47.27;44.60;;;;;;;-141.22;100.00;65034.22;5011605;28;20465;-45
2023/03/12 10:03:10;;;;;;;49.43;46.00;;;;;;;-141.22;100.00;65034.22;5012031;28;20462;-45
2023/03/12 10:05:45;;;;;;;46.47;44.07;;;;;;;-141.22;100.00;65034.22;5011125;28;20469;-47
2023/03/12 10:08:24;;;;;;;45.97;43.53;;;;;;;-141.22;100.00;65034.22;5011374;28;20444;-47
2023/03/12 10:11:07;;;;;;;47.23;44.43;;;;;;;-141.22;100.00;65034.22;5010310;28;20508;-43
2023/03/12 10:13:50;;;;;;;46.20;43.30;;;;;;;-141.22;100.00;65034.22;5011616;28;20798;-49
2023/03/12 10:16:32;;;;;;;45.20;42.50;;;;;;;-141.22;100.00;65034.22;5010464;28;20923;-47
2023/03/12 10:19:13;;;;;;;44.00;41.60;;;;;;;-141.22;100.00;65034.22;5011189;28;20424;-50
2023/03/12 10:21:51;;;;;;;43.93;41.57;;;;;;;-141.22;100.00;65034.22;5008915;28;20437;-47
2023/03/12 10:24:41;;;;;;;42.90;40.60;;;;;;;-141.22;100.00;65034.22;5011493;28;20583;-50
2023/03/12 10:27:12;;;;;;;42.40;39.87;;;;;;;-141.22;100.00;65034.22;5008873;28;20468;-43
2023/03/12 10:29:43;;;;;;;40.60;38.50;;;;;;;-141.22;100.00;65034.22;5009569;28;20469;-44
2023/03/12 10:32:17;;;;;;;40.73;38.40;;;;;;;-141.22;100.00;65034.22;5011461;28;20843;-47
2023/03/12 10:34:48;;;;;;;40.73;38.63;;;;;;;-141.22;100.00;65034.22;5010934;28;20485;-45
2023/03/12 10:37:22;;;;;;;40.90;38.27;;;;;;;-141.22;100.00;65034.22;5010093;28;20771;-48
2023/03/12 10:39:53;;;;;;;40.10;37.60;;;;;;;-141.22;100.00;65034.22;5010547;28;20456;-48
2023/03/12 10:42:23;;;;;;;41.57;39.07;;;;;;;-141.22;100.00;65034.22;5011087;28;20963;-46
2023/03/12 10:44:53;;;;;;;41.40;39.03;;;;;;;-141.22;100.00;65034.22;5009346;28;20433;-47
2023/03/12 10:47:31;;;;;;;39.90;37.70;;;;;;;-141.22;100.00;65034.22;5010377;28;20479;-52
2023/03/12 10:50:13;;;;;;;38.63;36.47;;;;;;;-141.22;100.00;65034.22;5006249;28;20471;-45
2023/03/12 10:52:42;;;;;;;39.70;37.23;;;;;;;-141.22;100.00;65034.22;5010911;28;20456;-47
2023/03/12 10:55:21;;;;;;;36.97;35.07;;;;;;;-141.22;100.00;65034.22;5009423;28;20433;-47
2023/03/12 10:57:49;;;;;;;38.40;36.10;;;;;;;-141.22;100.00;65034.22;5008623;28;20433;-46
2023/03/12 11:00:22;;;;;;;38.97;36.77;;;;;;;-141.22;100.00;65034.22;5010304;28;20471;-51
2023/03/12 11:02:58;;;;;;;36.87;34.87;;;;;;;-141.22;100.00;65034.22;5010409;28;20536;-45
2023/03/12 11:05:28;;;;;;;36.97;34.87;;;;;;;-141.22;100.00;65034.22;5010365;28;20432;-47